sensor_id;sensor_type;location;lat;lon;timestamp;temperature;humidity
22984;DHT22;11658;48.908;9.140;2023-06-14T04:02:26;12.50;99.90
22984;DHT22;11658;48.908;9.140;2023-06-14T04:04:54;12.00;99.90
22984;DHT22;11658;48.908;9.140;2023-06-14T04:07:20;12.90;99.90
22984;DHT22;11658;48.908;9.140;2023-06-14T04:09:46;12.90;99.90
22984;DHT22;11658;48.908;9.140;2023-06-14T04:12:12;13.00;99.90
22984;DHT22;11658;48.908;9.140;2023-06-14T04:14:39;13.00;99.90
22984;DHT22;11658;48.908;9.140;2023-06-14T04:17:05;13.00;99.90
22984;DHT22;11658;48.908;9.140;2023-06-14T04:19:30;13.10;99.90
22984;DHT22;11658;48.908;9.140;2023-06-14T04:21:56;13.10;99.90
22984;DHT22;11658;48.908;9.140;2023-06-14T04:24:22;13.00;99.90
22984;DHT22;11658;48.908;9.140;2023-06-14T04:26:49;13.10;99.90
22984;DHT22;11658;48.908;9.140;2023-06-14T04:29:15;13.40;99.90
22984;DHT22;11658;48.908;9.140;2023-06-14T04:31:42;14.50;99.90
22984;DHT22;11658;48.908;9.140;2023-06-14T04:34:08;16.30;99.90
22984;DHT22;11658;48.908;9.140;2023-06-14T04:36:34;17.90;99.90
22984;DHT22;11658;48.908;9.140;2023-06-14T04:39:03;19.50;99.90
22984;DHT22;11658;48.908;9.140;2023-06-14T04:41:30;20.50;99.90
22984;DHT22;11658;48.908;9.140;2023-06-14T04:44:00;21.70;99.90
22984;DHT22;11658;48.908;9.140;2023-06-14T04:46:29;22.70;99.90
22984;DHT22;11658;48.908;9.140;2023-06-14T04:48:55;23.50;99.90
22984;DHT22;11658;48.908;9.140;2023-06-14T04:51:22;24.50;99.90
22984;DHT22;11658;48.908;9.140;2023-06-14T04:53:55;25.00;99.90
22984;DHT22;11658;48.908;9.140;2023-06-14T04:56:23;25.50;99.10
22984;DHT22;11658;48.908;9.140;2023-06-14T04:58:50;26.10;98.20
22984;DHT22;11658;48.908;9.140;2023-06-14T05:01:16;26.30;96.30
22984;DHT22;11658;48.908;9.140;2023-06-14T05:03:41;26.70;95.60
22984;DHT22;11658;48.908;9.140;2023-06-14T05:06:10;27.10;94.30
22984;DHT22;11658;48.908;9.140;2023-06-14T05:08:37;26.80;93.60
22984;DHT22;11658;48.908;9.140;2023-06-14T05:11:03;26.90;93.70
22984;DHT22;11658;48.908;9.140;2023-06-14T05:13:28;27.60;93.00
22984;DHT22;11658;48.908;9.140;2023-06-14T05:15:54;26.90;91.00
22984;DHT22;11658;48.908;9.140;2023-06-14T05:18:19;25.40;92.90
22984;DHT22;11658;48.908;9.140;2023-06-14T05:20:45;25.00;93.10
22984;DHT22;11658;48.908;9.140;2023-06-14T05:23:11;25.30;93.50
22984;DHT22;11658;48.908;9.140;2023-06-14T05:25:44;26.20;92.70
22984;DHT22;11658;48.908;9.140;2023-06-14T05:28:09;25.90;92.70
22984;DHT22;11658;48.908;9.140;2023-06-14T05:30:38;25.60;92.40
22984;DHT22;11658;48.908;9.140;2023-06-14T05:33:04;24.80;92.80
22984;DHT22;11658;48.908;9.140;2023-06-14T05:35:30;24.40;93.30
22984;DHT22;11658;48.908;9.140;2023-06-14T05:37:56;23.80;93.80
22984;DHT22;11658;48.908;9.140;2023-06-14T05:40:21;23.50;94.60
22984;DHT22;11658;48.908;9.140;2023-06-14T05:42:47;24.00;94.00
22984;DHT22;11658;48.908;9.140;2023-06-14T05:45:13;24.80;94.20
22984;DHT22;11658;48.908;9.140;2023-06-14T05:47:40;24.90;93.70
22984;DHT22;11658;48.908;9.140;2023-06-14T05:50:06;25.50;93.40
22984;DHT22;11658;48.908;9.140;2023-06-14T05:52:32;25.20;92.80
22984;DHT22;11658;48.908;9.140;2023-06-14T05:54:57;25.00;93.00
22984;DHT22;11658;48.908;9.140;2023-06-14T05:57:23;25.00;93.50
22984;DHT22;11658;48.908;9.140;2023-06-14T05:59:48;24.80;93.20
22984;DHT22;11658;48.908;9.140;2023-06-14T06:02:15;25.60;93.00
22984;DHT22;11658;48.908;9.140;2023-06-14T06:04:41;26.30;92.00
22984;DHT22;11658;48.908;9.140;2023-06-14T06:07:06;26.30;91.90
22984;DHT22;11658;48.908;9.140;2023-06-14T06:09:32;26.10;91.80
22984;DHT22;11658;48.908;9.140;2023-06-14T06:11:58;25.90;92.20
22984;DHT22;11658;48.908;9.140;2023-06-14T06:14:24;25.80;91.90
22984;DHT22;11658;48.908;9.140;2023-06-14T06:16:50;26.10;91.70
22984;DHT22;11658;48.908;9.140;2023-06-14T06:19:18;25.80;91.40
22984;DHT22;11658;48.908;9.140;2023-06-14T06:21:43;26.10;91.40
22984;DHT22;11658;48.908;9.140;2023-06-14T06:24:09;27.10;90.70
22984;DHT22;11658;48.908;9.140;2023-06-14T06:26:34;27.40;89.40
22984;DHT22;11658;48.908;9.140;2023-06-14T06:29:00;28.30;88.70
22984;DHT22;11658;48.908;9.140;2023-06-14T06:31:26;28.10;87.00
22984;DHT22;11658;48.908;9.140;2023-06-14T06:33:53;27.10;88.10
22984;DHT22;11658;48.908;9.140;2023-06-14T06:36:20;27.60;88.70
22984;DHT22;11658;48.908;9.140;2023-06-14T06:38:47;28.70;88.30
22984;DHT22;11658;48.908;9.140;2023-06-14T06:41:12;30.20;83.50
22984;DHT22;11658;48.908;9.140;2023-06-14T06:43:38;28.40;82.60
22984;DHT22;11658;48.908;9.140;2023-06-14T06:46:03;25.80;86.30
22984;DHT22;11658;48.908;9.140;2023-06-14T06:48:29;25.20;89.50
22984;DHT22;11658;48.908;9.140;2023-06-14T06:50:55;25.00;90.30
22984;DHT22;11658;48.908;9.140;2023-06-14T06:53:20;24.10;90.90
22984;DHT22;11658;48.908;9.140;2023-06-14T06:55:46;23.30;90.40
22984;DHT22;11658;48.908;9.140;2023-06-14T06:58:12;22.10;92.10
22984;DHT22;11658;48.908;9.140;2023-06-14T07:00:38;21.20;93.60
22984;DHT22;11658;48.908;9.140;2023-06-14T07:03:03;20.60;95.20
22984;DHT22;11658;48.908;9.140;2023-06-14T07:05:29;20.40;96.90
22984;DHT22;11658;48.908;9.140;2023-06-14T07:07:56;20.30;97.70
22984;DHT22;11658;48.908;9.140;2023-06-14T07:10:21;20.30;98.10
22984;DHT22;11658;48.908;9.140;2023-06-14T07:12:47;20.30;97.80
22984;DHT22;11658;48.908;9.140;2023-06-14T07:15:12;20.30;98.10
22984;DHT22;11658;48.908;9.140;2023-06-14T07:17:38;19.80;98.60
22984;DHT22;11658;48.908;9.140;2023-06-14T07:20:07;19.50;99.50
22984;DHT22;11658;48.908;9.140;2023-06-14T07:22:33;19.40;99.90
22984;DHT22;11658;48.908;9.140;2023-06-14T07:24:59;19.50;99.90
22984;DHT22;11658;48.908;9.140;2023-06-14T07:27:24;19.50;99.90
22984;DHT22;11658;48.908;9.140;2023-06-14T07:29:50;19.40;99.90
22984;DHT22;11658;48.908;9.140;2023-06-14T07:32:15;19.30;99.90
22984;DHT22;11658;48.908;9.140;2023-06-14T07:34:41;19.60;99.90
22984;DHT22;11658;48.908;9.140;2023-06-14T07:37:06;19.40;99.90
22984;DHT22;11658;48.908;9.140;2023-06-14T07:39:32;19.40;99.90
22984;DHT22;11658;48.908;9.140;2023-06-14T07:41:57;19.30;99.90
22984;DHT22;11658;48.908;9.140;2023-06-14T07:44:23;19.60;99.90
22984;DHT22;11658;48.908;9.140;2023-06-14T07:46:49;19.80;99.90
22984;DHT22;11658;48.908;9.140;2023-06-14T07:49:17;20.00;99.90
22984;DHT22;11658;48.908;9.140;2023-06-14T07:51:42;19.90;99.90
22984;DHT22;11658;48.908;9.140;2023-06-14T07:54:09;20.00;99.90
22984;DHT22;11658;48.908;9.140;2023-06-14T07:56:35;20.00;99.90
22984;DHT22;11658;48.908;9.140;2023-06-14T07:59:01;19.90;99.90
22984;DHT22;11658;48.908;9.140;2023-06-14T08:01:27;19.80;99.90
22984;DHT22;11658;48.908;9.140;2023-06-14T08:03:53;19.70;99.90
22984;DHT22;11658;48.908;9.140;2023-06-14T08:06:19;19.70;99.90
22984;DHT22;11658;48.908;9.140;2023-06-14T08:08:44;19.90;99.90
22984;DHT22;11658;48.908;9.140;2023-06-14T08:11:10;20.30;99.90
22984;DHT22;11658;48.908;9.140;2023-06-14T08:13:35;20.40;99.90
22984;DHT22;11658;48.908;9.140;2023-06-14T08:16:01;20.10;99.90
22984;DHT22;11658;48.908;9.140;2023-06-14T08:18:26;20.20;99.90
22984;DHT22;11658;48.908;9.140;2023-06-14T08:20:52;20.30;99.90
22984;DHT22;11658;48.908;9.140;2023-06-14T08:23:19;20.60;99.90
22984;DHT22;11658;48.908;9.140;2023-06-14T08:25:46;20.70;99.90
22984;DHT22;11658;48.908;9.140;2023-06-14T08:28:12;20.80;99.90
22984;DHT22;11658;48.908;9.140;2023-06-14T08:30:37;20.50;99.90
22984;DHT22;11658;48.908;9.140;2023-06-14T08:33:03;20.40;99.90
22984;DHT22;11658;48.908;9.140;2023-06-14T08:35:29;20.50;99.90
22984;DHT22;11658;48.908;9.140;2023-06-14T08:37:54;20.70;99.90
22984;DHT22;11658;48.908;9.140;2023-06-14T08:40:22;20.70;99.90
22984;DHT22;11658;48.908;9.140;2023-06-14T08:42:52;20.70;99.90
22984;DHT22;11658;48.908;9.140;2023-06-14T08:45:19;20.50;99.90
22984;DHT22;11658;48.908;9.140;2023-06-14T08:47:45;20.40;99.90
22984;DHT22;11658;48.908;9.140;2023-06-14T08:50:21;20.70;99.90
22984;DHT22;11658;48.908;9.140;2023-06-14T08:52:51;20.80;99.90
22984;DHT22;11658;48.908;9.140;2023-06-14T08:55:19;20.90;99.90
22984;DHT22;11658;48.908;9.140;2023-06-14T08:57:46;21.10;99.90
22984;DHT22;11658;48.908;9.140;2023-06-14T09:00:14;21.30;99.90
22984;DHT22;11658;48.908;9.140;2023-06-14T09:02:40;21.50;99.90
22984;DHT22;11658;48.908;9.140;2023-06-14T09:05:09;21.50;99.90
22984;DHT22;11658;48.908;9.140;2023-06-14T09:07:37;21.30;99.90
22984;DHT22;11658;48.908;9.140;2023-06-14T09:10:08;21.40;99.90
22984;DHT22;11658;48.908;9.140;2023-06-14T09:12:35;21.50;99.90
22984;DHT22;11658;48.908;9.140;2023-06-14T09:15:02;21.70;99.90
22984;DHT22;11658;48.908;9.140;2023-06-14T09:17:32;21.80;99.90
22984;DHT22;11658;48.908;9.140;2023-06-14T09:19:59;21.80;99.90
22984;DHT22;11658;48.908;9.140;2023-06-14T09:22:24;21.70;99.90
22984;DHT22;11658;48.908;9.140;2023-06-14T09:24:50;21.60;99.90
22984;DHT22;11658;48.908;9.140;2023-06-14T09:27:16;21.50;99.90
22984;DHT22;11658;48.908;9.140;2023-06-14T09:29:41;21.60;99.90
22984;DHT22;11658;48.908;9.140;2023-06-14T09:32:07;21.70;99.90
22984;DHT22;11658;48.908;9.140;2023-06-14T09:34:34;21.90;99.90
22984;DHT22;11658;48.908;9.140;2023-06-14T09:37:00;22.00;99.90
22984;DHT22;11658;48.908;9.140;2023-06-14T09:39:26;22.30;99.90
22984;DHT22;11658;48.908;9.140;2023-06-14T09:41:52;22.30;99.90
22984;DHT22;11658;48.908;9.140;2023-06-14T09:44:18;22.20;99.90
22984;DHT22;11658;48.908;9.140;2023-06-14T09:46:45;22.20;99.90
22984;DHT22;11658;48.908;9.140;2023-06-14T09:49:11;22.20;99.90
22984;DHT22;11658;48.908;9.140;2023-06-14T09:51:42;22.20;99.40
22984;DHT22;11658;48.908;9.140;2023-06-14T09:54:15;22.10;99.40
22984;DHT22;11658;48.908;9.140;2023-06-14T09:56:44;22.10;99.40
22984;DHT22;11658;48.908;9.140;2023-06-14T09:59:12;22.30;97.30
22984;DHT22;11658;48.908;9.140;2023-06-14T10:01:42;22.50;97.20
22984;DHT22;11658;48.908;9.140;2023-06-14T10:04:09;22.40;94.80
22984;DHT22;11658;48.908;9.140;2023-06-14T10:06:46;22.50;94.50
22984;DHT22;11658;48.908;9.140;2023-06-14T10:09:12;22.60;95.30
22984;DHT22;11658;48.908;9.140;2023-06-14T10:11:40;23.00;94.70
22984;DHT22;11658;48.908;9.140;2023-06-14T10:14:10;23.20;92.50
22984;DHT22;11658;48.908;9.140;2023-06-14T10:16:52;23.40;91.80
22984;DHT22;11658;48.908;9.140;2023-06-14T10:19:29;23.50;91.40
22984;DHT22;11658;48.908;9.140;2023-06-14T10:22:14;23.30;91.50
22984;DHT22;11658;48.908;9.140;2023-06-14T10:24:43;23.10;91.30
22984;DHT22;11658;48.908;9.140;2023-06-14T10:27:09;23.00;91.40
22984;DHT22;11658;48.908;9.140;2023-06-14T10:32:27;23.40;91.50
22984;DHT22;11658;48.908;9.140;2023-06-14T10:34:56;23.80;91.00
22984;DHT22;11658;48.908;9.140;2023-06-14T10:37:22;24.10;90.00
22984;DHT22;11658;48.908;9.140;2023-06-14T10:39:51;23.90;88.70
22984;DHT22;11658;48.908;9.140;2023-06-14T10:42:19;23.40;87.40
22984;DHT22;11658;48.908;9.140;2023-06-14T10:44:57;23.20;87.00
22984;DHT22;11658;48.908;9.140;2023-06-14T10:50:05;23.90;90.70
22984;DHT22;11658;48.908;9.140;2023-06-14T10:52:39;24.10;87.50
22984;DHT22;11658;48.908;9.140;2023-06-14T10:55:17;24.30;88.40
22984;DHT22;11658;48.908;9.140;2023-06-14T10:57:48;24.30;82.90
22984;DHT22;11658;48.908;9.140;2023-06-14T11:00:21;24.00;84.10
22984;DHT22;11658;48.908;9.140;2023-06-14T11:11:00;23.60;85.20
22984;DHT22;11658;48.908;9.140;2023-06-14T11:13:26;23.60;85.00
22984;DHT22;11658;48.908;9.140;2023-06-14T11:15:52;23.30;85.50
22984;DHT22;11658;48.908;9.140;2023-06-14T11:18:19;23.50;86.30
22984;DHT22;11658;48.908;9.140;2023-06-14T11:20:49;23.70;86.20
22984;DHT22;11658;48.908;9.140;2023-06-14T11:23:15;23.70;85.80
22984;DHT22;11658;48.908;9.140;2023-06-14T11:25:41;24.00;87.40
22984;DHT22;11658;48.908;9.140;2023-06-14T11:28:07;24.20;83.50
22984;DHT22;11658;48.908;9.140;2023-06-14T11:30:32;24.10;83.40
22984;DHT22;11658;48.908;9.140;2023-06-14T11:32:58;24.10;84.70
22984;DHT22;11658;48.908;9.140;2023-06-14T11:35:25;24.10;84.40
22984;DHT22;11658;48.908;9.140;2023-06-14T11:37:57;24.10;85.10
22984;DHT22;11658;48.908;9.140;2023-06-14T11:40:24;24.00;85.90
22984;DHT22;11658;48.908;9.140;2023-06-14T11:42:51;24.30;86.40
22984;DHT22;11658;48.908;9.140;2023-06-14T11:45:23;24.10;86.40
22984;DHT22;11658;48.908;9.140;2023-06-14T11:47:50;23.70;86.70
22984;DHT22;11658;48.908;9.140;2023-06-14T11:50:16;23.70;89.10
22984;DHT22;11658;48.908;9.140;2023-06-14T11:52:43;23.50;84.30
22984;DHT22;11658;48.908;9.140;2023-06-14T11:55:08;23.40;84.70
22984;DHT22;11658;48.908;9.140;2023-06-14T11:57:35;23.60;86.40
22984;DHT22;11658;48.908;9.140;2023-06-14T12:00:06;23.90;86.00
22984;DHT22;11658;48.908;9.140;2023-06-14T12:02:37;23.60;83.60
22984;DHT22;11658;48.908;9.140;2023-06-14T12:05:07;23.50;84.70
22984;DHT22;11658;48.908;9.140;2023-06-14T12:07:39;23.70;85.50
22984;DHT22;11658;48.908;9.140;2023-06-14T12:10:06;23.90;84.30
22984;DHT22;11658;48.908;9.140;2023-06-14T12:12:39;23.70;84.30
22984;DHT22;11658;48.908;9.140;2023-06-14T12:15:06;23.80;85.00
22984;DHT22;11658;48.908;9.140;2023-06-14T12:17:37;24.10;86.50
22984;DHT22;11658;48.908;9.140;2023-06-14T12:20:09;24.10;82.40
22984;DHT22;11658;48.908;9.140;2023-06-14T12:22:55;24.00;83.40
22984;DHT22;11658;48.908;9.140;2023-06-14T12:25:27;24.20;82.80
22984;DHT22;11658;48.908;9.140;2023-06-14T12:27:55;24.40;84.00
22984;DHT22;11658;48.908;9.140;2023-06-14T12:30:21;24.20;83.80
22984;DHT22;11658;48.908;9.140;2023-06-14T12:32:47;24.10;84.80
22984;DHT22;11658;48.908;9.140;2023-06-14T12:35:13;24.40;82.80
22984;DHT22;11658;48.908;9.140;2023-06-14T12:37:39;24.20;82.90
22984;DHT22;11658;48.908;9.140;2023-06-14T12:40:05;24.20;84.60
22984;DHT22;11658;48.908;9.140;2023-06-14T12:42:32;24.40;84.00
22984;DHT22;11658;48.908;9.140;2023-06-14T12:44:59;24.60;83.50
22984;DHT22;11658;48.908;9.140;2023-06-14T12:47:25;24.70;83.60
22984;DHT22;11658;48.908;9.140;2023-06-14T12:49:50;24.70;82.50
22984;DHT22;11658;48.908;9.140;2023-06-14T12:52:16;24.40;82.50
22984;DHT22;11658;48.908;9.140;2023-06-14T12:54:41;24.10;84.60
22984;DHT22;11658;48.908;9.140;2023-06-14T12:57:07;24.10;83.80
22984;DHT22;11658;48.908;9.140;2023-06-14T12:59:33;24.00;83.70
22984;DHT22;11658;48.908;9.140;2023-06-14T13:02:16;23.80;84.50
22984;DHT22;11658;48.908;9.140;2023-06-14T13:04:44;23.70;84.60
22984;DHT22;11658;48.908;9.140;2023-06-14T13:07:10;23.90;86.50
22984;DHT22;11658;48.908;9.140;2023-06-14T13:09:37;24.10;84.70
22984;DHT22;11658;48.908;9.140;2023-06-14T13:12:03;24.10;84.10
22984;DHT22;11658;48.908;9.140;2023-06-14T13:14:30;23.90;83.70
22984;DHT22;11658;48.908;9.140;2023-06-14T13:16:56;23.90;82.80
22984;DHT22;11658;48.908;9.140;2023-06-14T13:19:22;24.00;82.90
22984;DHT22;11658;48.908;9.140;2023-06-14T13:21:48;24.20;82.90
22984;DHT22;11658;48.908;9.140;2023-06-14T13:24:13;24.60;84.10
22984;DHT22;11658;48.908;9.140;2023-06-14T13:26:40;25.10;82.90
22984;DHT22;11658;48.908;9.140;2023-06-14T13:29:05;25.20;84.50
22984;DHT22;11658;48.908;9.140;2023-06-14T13:31:31;25.10;85.10
22984;DHT22;11658;48.908;9.140;2023-06-14T13:33:57;24.70;84.40
22984;DHT22;11658;48.908;9.140;2023-06-14T13:36:22;24.10;85.30
22984;DHT22;11658;48.908;9.140;2023-06-14T13:38:48;23.60;85.10
22984;DHT22;11658;48.908;9.140;2023-06-14T13:41:14;23.50;85.80
22984;DHT22;11658;48.908;9.140;2023-06-14T13:43:40;23.50;86.00
22984;DHT22;11658;48.908;9.140;2023-06-14T13:46:06;23.50;86.90
22984;DHT22;11658;48.908;9.140;2023-06-14T13:48:32;23.80;85.30
22984;DHT22;11658;48.908;9.140;2023-06-14T13:51:00;24.00;85.90
22984;DHT22;11658;48.908;9.140;2023-06-14T13:53:26;24.40;84.20
22984;DHT22;11658;48.908;9.140;2023-06-14T13:55:52;24.60;83.70
22984;DHT22;11658;48.908;9.140;2023-06-14T13:58:18;24.60;84.80
22984;DHT22;11658;48.908;9.140;2023-06-14T14:00:44;24.40;83.90
22984;DHT22;11658;48.908;9.140;2023-06-14T14:03:10;24.20;83.70
22984;DHT22;11658;48.908;9.140;2023-06-14T14:05:36;23.90;84.50
22984;DHT22;11658;48.908;9.140;2023-06-14T14:08:03;23.80;84.40
22984;DHT22;11658;48.908;9.140;2023-06-14T14:10:31;23.90;84.80
22984;DHT22;11658;48.908;9.140;2023-06-14T14:12:56;24.10;85.80
22984;DHT22;11658;48.908;9.140;2023-06-14T14:15:22;24.30;86.30
22984;DHT22;11658;48.908;9.140;2023-06-14T14:17:48;24.30;86.50
22984;DHT22;11658;48.908;9.140;2023-06-14T14:20:14;24.30;86.80
22984;DHT22;11658;48.908;9.140;2023-06-14T14:22:48;24.20;85.80
22984;DHT22;11658;48.908;9.140;2023-06-14T14:25:14;24.10;85.80
22984;DHT22;11658;48.908;9.140;2023-06-14T14:27:40;24.30;88.60
22984;DHT22;11658;48.908;9.140;2023-06-14T14:30:06;24.90;85.20
22984;DHT22;11658;48.908;9.140;2023-06-14T14:32:32;25.10;82.10
22984;DHT22;11658;48.908;9.140;2023-06-14T14:34:58;25.00;83.00
22984;DHT22;11658;48.908;9.140;2023-06-14T14:37:23;25.10;82.40
22984;DHT22;11658;48.908;9.140;2023-06-14T14:39:49;25.20;82.40
22984;DHT22;11658;48.908;9.140;2023-06-14T14:42:14;24.80;81.10
22984;DHT22;11658;48.908;9.140;2023-06-14T14:44:40;24.80;82.00
22984;DHT22;11658;48.908;9.140;2023-06-14T14:47:06;25.00;82.60
22984;DHT22;11658;48.908;9.140;2023-06-14T14:49:32;25.20;82.80
22984;DHT22;11658;48.908;9.140;2023-06-14T14:51:57;25.20;81.80
22984;DHT22;11658;48.908;9.140;2023-06-14T14:54:23;25.40;81.90
22984;DHT22;11658;48.908;9.140;2023-06-14T14:56:50;25.50;80.60
22984;DHT22;11658;48.908;9.140;2023-06-14T14:59:16;25.30;80.60
22984;DHT22;11658;48.908;9.140;2023-06-14T15:01:41;25.30;79.20
22984;DHT22;11658;48.908;9.140;2023-06-14T15:04:07;25.50;80.20
22984;DHT22;11658;48.908;9.140;2023-06-14T15:06:32;25.80;80.90
22984;DHT22;11658;48.908;9.140;2023-06-14T15:09:01;25.90;80.30
22984;DHT22;11658;48.908;9.140;2023-06-14T15:11:26;25.70;81.00
22984;DHT22;11658;48.908;9.140;2023-06-14T15:13:52;25.70;80.80
22984;DHT22;11658;48.908;9.140;2023-06-14T15:16:18;25.80;80.00
22984;DHT22;11658;48.908;9.140;2023-06-14T15:18:44;25.50;79.60
22984;DHT22;11658;48.908;9.140;2023-06-14T15:21:10;25.40;80.20
22984;DHT22;11658;48.908;9.140;2023-06-14T15:23:35;25.20;79.90
22984;DHT22;11658;48.908;9.140;2023-06-14T15:26:01;25.00;80.10
22984;DHT22;11658;48.908;9.140;2023-06-14T15:28:26;24.90;80.40
22984;DHT22;11658;48.908;9.140;2023-06-14T15:30:55;25.00;81.00
22984;DHT22;11658;48.908;9.140;2023-06-14T15:33:20;25.20;80.10
22984;DHT22;11658;48.908;9.140;2023-06-14T15:35:46;25.40;80.80
22984;DHT22;11658;48.908;9.140;2023-06-14T15:38:12;25.60;81.40
22984;DHT22;11658;48.908;9.140;2023-06-14T15:40:37;25.50;80.20
22984;DHT22;11658;48.908;9.140;2023-06-14T15:43:03;25.30;80.60
22984;DHT22;11658;48.908;9.140;2023-06-14T15:45:29;25.20;80.20
22984;DHT22;11658;48.908;9.140;2023-06-14T15:47:55;25.10;80.60
22984;DHT22;11658;48.908;9.140;2023-06-14T15:50:21;24.80;80.60
22984;DHT22;11658;48.908;9.140;2023-06-14T15:52:47;24.80;81.40
22984;DHT22;11658;48.908;9.140;2023-06-14T15:55:12;24.60;81.50
22984;DHT22;11658;48.908;9.140;2023-06-14T15:57:38;24.60;82.10
22984;DHT22;11658;48.908;9.140;2023-06-14T16:00:04;24.60;82.10
22984;DHT22;11658;48.908;9.140;2023-06-14T16:02:30;24.60;82.30
22984;DHT22;11658;48.908;9.140;2023-06-14T16:04:55;24.50;81.20
22984;DHT22;11658;48.908;9.140;2023-06-14T16:07:21;24.60;81.90
22984;DHT22;11658;48.908;9.140;2023-06-14T16:09:46;24.80;80.90
22984;DHT22;11658;48.908;9.140;2023-06-14T16:12:12;25.10;79.70
22984;DHT22;11658;48.908;9.140;2023-06-14T16:14:41;25.00;79.90
22984;DHT22;11658;48.908;9.140;2023-06-14T16:17:07;25.00;78.80
22984;DHT22;11658;48.908;9.140;2023-06-14T16:19:33;25.10;81.50
22984;DHT22;11658;48.908;9.140;2023-06-14T16:21:58;25.10;82.20
22984;DHT22;11658;48.908;9.140;2023-06-14T16:24:24;25.10;82.60
22984;DHT22;11658;48.908;9.140;2023-06-14T16:26:51;25.10;84.80
22984;DHT22;11658;48.908;9.140;2023-06-14T16:29:19;25.20;83.50
22984;DHT22;11658;48.908;9.140;2023-06-14T16:31:47;25.20;83.30
22984;DHT22;11658;48.908;9.140;2023-06-14T16:34:13;25.30;83.60
22984;DHT22;11658;48.908;9.140;2023-06-14T16:36:41;25.30;81.30
22984;DHT22;11658;48.908;9.140;2023-06-14T16:39:06;25.30;81.70
22984;DHT22;11658;48.908;9.140;2023-06-14T16:41:32;25.50;81.10
22984;DHT22;11658;48.908;9.140;2023-06-14T16:43:58;26.40;81.40
22984;DHT22;11658;48.908;9.140;2023-06-14T16:46:30;27.90;78.70
22984;DHT22;11658;48.908;9.140;2023-06-14T16:48:57;28.90;77.70
22984;DHT22;11658;48.908;9.140;2023-06-14T16:51:23;29.10;74.70
22984;DHT22;11658;48.908;9.140;2023-06-14T16:53:49;29.50;74.90
22984;DHT22;11658;48.908;9.140;2023-06-14T16:56:16;29.70;73.30
22984;DHT22;11658;48.908;9.140;2023-06-14T16:58:41;29.50;73.40
22984;DHT22;11658;48.908;9.140;2023-06-14T17:01:07;29.30;72.80
22984;DHT22;11658;48.908;9.140;2023-06-14T17:03:32;30.10;72.00
22984;DHT22;11658;48.908;9.140;2023-06-14T17:05:59;30.80;70.30
22984;DHT22;11658;48.908;9.140;2023-06-14T17:08:25;31.10;67.90
22984;DHT22;11658;48.908;9.140;2023-06-14T17:10:54;31.30;68.00
22984;DHT22;11658;48.908;9.140;2023-06-14T17:13:20;31.30;67.40
22984;DHT22;11658;48.908;9.140;2023-06-14T17:15:46;30.70;68.00
22984;DHT22;11658;48.908;9.140;2023-06-14T17:18:12;30.20;69.00
22984;DHT22;11658;48.908;9.140;2023-06-14T17:20:38;30.00;69.30
22984;DHT22;11658;48.908;9.140;2023-06-14T17:23:03;29.70;69.80
22984;DHT22;11658;48.908;9.140;2023-06-14T17:25:29;30.00;69.50
22984;DHT22;11658;48.908;9.140;2023-06-14T17:27:55;30.00;69.70
22984;DHT22;11658;48.908;9.140;2023-06-14T17:30:21;30.20;69.40
22984;DHT22;11658;48.908;9.140;2023-06-14T17:32:46;30.70;68.80
22984;DHT22;11658;48.908;9.140;2023-06-14T17:35:12;31.10;67.60
22984;DHT22;11658;48.908;9.140;2023-06-14T17:37:41;30.80;68.00
22984;DHT22;11658;48.908;9.140;2023-06-14T17:40:07;30.80;67.10
22984;DHT22;11658;48.908;9.140;2023-06-14T17:42:33;30.50;68.20
22984;DHT22;11658;48.908;9.140;2023-06-14T17:44:58;30.40;67.90
22984;DHT22;11658;48.908;9.140;2023-06-14T17:47:24;29.20;68.60
22984;DHT22;11658;48.908;9.140;2023-06-14T17:49:50;28.60;70.40
22984;DHT22;11658;48.908;9.140;2023-06-14T17:52:16;27.90;71.40
22984;DHT22;11658;48.908;9.140;2023-06-14T17:54:42;27.50;72.80
22984;DHT22;11658;48.908;9.140;2023-06-14T17:57:07;27.40;72.80
22984;DHT22;11658;48.908;9.140;2023-06-14T17:59:33;27.20;73.20
22984;DHT22;11658;48.908;9.140;2023-06-14T18:01:59;26.20;75.40
22984;DHT22;11658;48.908;9.140;2023-06-14T18:04:25;25.30;76.70
22984;DHT22;11658;48.908;9.140;2023-06-14T18:06:52;24.80;78.20
22984;DHT22;11658;48.908;9.140;2023-06-14T18:09:18;24.40;79.10
22984;DHT22;11658;48.908;9.140;2023-06-14T18:11:43;24.10;79.70
22984;DHT22;11658;48.908;9.140;2023-06-14T18:14:09;23.80;79.40
22984;DHT22;11658;48.908;9.140;2023-06-14T18:16:35;23.50;79.90
22984;DHT22;11658;48.908;9.140;2023-06-14T18:19:00;23.30;80.90
22984;DHT22;11658;48.908;9.140;2023-06-14T18:21:26;23.10;81.40
22984;DHT22;11658;48.908;9.140;2023-06-14T18:23:52;23.00;81.30
22984;DHT22;11658;48.908;9.140;2023-06-14T18:26:22;23.00;82.40
22984;DHT22;11658;48.908;9.140;2023-06-14T18:28:48;22.90;83.00
22984;DHT22;11658;48.908;9.140;2023-06-14T18:31:15;22.70;83.50
22984;DHT22;11658;48.908;9.140;2023-06-14T18:33:41;22.60;83.90
22984;DHT22;11658;48.908;9.140;2023-06-14T18:36:07;22.50;84.30
22984;DHT22;11658;48.908;9.140;2023-06-14T18:38:32;22.40;85.20
22984;DHT22;11658;48.908;9.140;2023-06-14T18:40:58;22.30;85.60
22984;DHT22;11658;48.908;9.140;2023-06-14T18:43:24;22.20;85.60
22984;DHT22;11658;48.908;9.140;2023-06-14T18:45:49;22.10;86.50
22984;DHT22;11658;48.908;9.140;2023-06-14T18:48:15;22.00;86.90
22984;DHT22;11658;48.908;9.140;2023-06-14T18:50:40;21.90;87.20
22984;DHT22;11658;48.908;9.140;2023-06-14T18:53:06;21.80;87.50
22984;DHT22;11658;48.908;9.140;2023-06-14T18:55:31;21.70;87.80
22984;DHT22;11658;48.908;9.140;2023-06-14T18:57:57;21.60;89.00
22984;DHT22;11658;48.908;9.140;2023-06-14T19:00:23;21.50;88.50
22984;DHT22;11658;48.908;9.140;2023-06-14T19:02:50;21.40;89.10
22984;DHT22;11658;48.908;9.140;2023-06-14T19:05:15;21.40;89.80
22984;DHT22;11658;48.908;9.140;2023-06-14T19:07:41;21.40;89.50
22984;DHT22;11658;48.908;9.140;2023-06-14T19:10:07;21.40;89.80
22984;DHT22;11658;48.908;9.140;2023-06-14T19:12:33;21.40;89.80
22984;DHT22;11658;48.908;9.140;2023-06-14T19:14:58;21.30;90.20
22984;DHT22;11658;48.908;9.140;2023-06-14T19:17:26;21.30;90.30
22984;DHT22;11658;48.908;9.140;2023-06-14T19:19:51;21.30;90.60
22984;DHT22;11658;48.908;9.140;2023-06-14T19:22:17;21.10;90.50
22984;DHT22;11658;48.908;9.140;2023-06-14T19:24:42;21.00;90.80
22984;DHT22;11658;48.908;9.140;2023-06-14T19:27:08;21.00;90.80
22984;DHT22;11658;48.908;9.140;2023-06-14T19:29:34;21.00;90.80
22984;DHT22;11658;48.908;9.140;2023-06-14T19:31:59;21.00;91.40
22984;DHT22;11658;48.908;9.140;2023-06-14T19:34:26;20.90;91.40
22984;DHT22;11658;48.908;9.140;2023-06-14T19:36:51;20.90;91.50
22984;DHT22;11658;48.908;9.140;2023-06-14T19:39:17;20.80;91.20
22984;DHT22;11658;48.908;9.140;2023-06-14T19:41:43;20.70;92.00